Time;durP1;ratioP1;P1;durP2;ratioP2;P2;SDS_P1;SDS_P2;PMS_P1;PMS_P2;Temp;Humidity;BMP_temperature;BMP_pressure;BME280_temperature;BME280_humidity;BME280_pressure;Samples;Min_cycle;Max_cycle;Signal;HPM_P1;HPM_P2
2022/07/13 00:00:23;;;;;;;5.80;4.10;;;25.50;99.90;;;;;;4162704;28;20646;-65
2022/07/13 00:02:30;;;;;;;7.75;4.70;;;25.60;99.90;;;;;;4161217;28;20168;-65
2022/07/13 00:04:39;;;;;;;6.55;4.28;;;25.70;99.90;;;;;;4169119;28;20368;-65
2022/07/13 00:06:44;;;;;;;6.72;4.32;;;25.70;99.90;;;;;;4178001;28;20036;-66
2022/07/13 00:08:48;;;;;;;6.10;3.85;;;25.60;99.90;;;;;;4173791;28;20071;-66
2022/07/13 00:10:54;;;;;;;5.20;3.50;;;25.60;99.90;;;;;;4153911;28;20140;-66
2022/07/13 00:12:59;;;;;;;5.18;4.15;;;25.50;99.90;;;;;;4172113;28;20073;-64
2022/07/13 00:15:05;;;;;;;5.85;3.75;;;25.50;99.90;;;;;;4153353;28;20543;-65
2022/07/13 00:17:16;;;;;;;5.50;4.10;;;25.60;99.90;;;;;;4171652;28;20049;-65
2022/07/13 00:19:21;;;;;;;5.55;3.85;;;25.60;99.90;;;;;;4167370;28;20041;-65
2022/07/13 00:21:27;;;;;;;6.07;4.60;;;25.70;99.90;;;;;;4170839;28;20407;-67
2022/07/13 00:23:35;;;;;;;8.27;4.88;;;25.70;99.90;;;;;;4120297;28;20043;-65
2022/07/13 00:25:43;;;;;;;4.57;3.72;;;25.70;99.90;;;;;;4170490;28;20040;-66
2022/07/13 00:27:48;;;;;;;4.53;3.95;;;25.80;99.90;;;;;;4168993;28;20140;-66
2022/07/13 00:29:59;;;;;;;7.65;4.60;;;25.70;99.90;;;;;;4170161;28;20037;-66
2022/07/13 00:32:06;;;;;;;7.93;4.50;;;25.70;99.90;;;;;;4189327;28;20048;-65
2022/07/13 00:34:13;;;;;;;7.18;4.60;;;25.70;99.90;;;;;;4175967;28;20102;-65
2022/07/13 00:36:19;;;;;;;6.53;4.05;;;25.80;99.90;;;;;;4176643;28;20083;-64
2022/07/13 00:38:35;;;;;;;7.75;4.80;;;25.80;99.90;;;;;;4176511;28;20048;-66
2022/07/13 00:40:42;;;;;;;7.65;4.78;;;25.80;99.90;;;;;;4176950;28;20102;-65
2022/07/13 00:42:52;;;;;;;6.18;4.88;;;26.00;99.90;;;;;;4177325;28;20111;-64
2022/07/13 00:44:57;;;;;;;9.85;4.88;;;26.00;99.90;;;;;;4177522;28;20128;-65
2022/07/13 00:47:03;;;;;;;6.57;5.18;;;26.20;99.90;;;;;;4177653;28;20111;-65
2022/07/13 00:49:10;;;;;;;8.20;4.90;;;26.20;99.90;;;;;;4177353;28;20041;-65
2022/07/13 00:51:21;;;;;;;5.78;4.20;;;26.40;99.90;;;;;;4177698;28;20079;-65
2022/07/13 00:53:31;;;;;;;5.72;4.47;;;26.40;99.90;;;;;;4178814;28;20064;-66
2022/07/13 00:55:40;;;;;;;4.85;4.07;;;26.40;99.90;;;;;;4190239;28;20582;-65
2022/07/13 00:57:47;;;;;;;4.40;3.85;;;26.40;99.90;;;;;;4178110;28;20404;-66
2022/07/13 00:59:53;;;;;;;5.40;3.85;;;26.40;99.90;;;;;;4177957;28;20116;-65
2022/07/13 01:02:02;;;;;;;3.80;3.40;;;26.40;99.90;;;;;;4176540;28;20044;-65
2022/07/13 01:04:14;;;;;;;5.35;4.05;;;26.50;99.90;;;;;;4177684;28;20052;-65
2022/07/13 01:06:23;;;;;;;4.05;3.42;;;26.50;99.90;;;;;;4160337;28;20052;-65
2022/07/13 01:08:35;;;;;;;6.80;3.65;;;26.50;99.90;;;;;;4176883;28;20044;-69
2022/07/13 01:10:44;;;;;;;3.30;3.00;;;26.60;99.90;;;;;;4159878;28;20359;-65
2022/07/13 01:12:49;;;;;;;3.28;2.42;;;26.60;99.90;;;;;;4131984;28;20458;-64
2022/07/13 01:14:54;;;;;;;2.97;2.70;;;26.60;99.90;;;;;;4155764;28;20119;-65
2022/07/13 01:16:59;;;;;;;3.72;2.30;;;26.60;99.90;;;;;;4122175;28;20393;-65
2022/07/13 01:19:04;;;;;;;3.75;2.53;;;26.60;99.90;;;;;;4155218;28;20038;-65
2022/07/13 01:21:13;;;;;;;3.17;2.28;;;26.60;99.90;;;;;;4121345;28;20053;-65
2022/07/13 01:23:18;;;;;;;2.28;1.70;;;26.60;99.90;;;;;;4136218;28;20244;-65
2022/07/13 01:25:24;;;;;;;3.70;2.40;;;26.70;99.90;;;;;;4121046;28;20051;-65
2022/07/13 01:27:34;;;;;;;2.92;1.67;;;26.80;99.90;;;;;;4099840;28;20054;-66
2022/07/13 01:29:40;;;;;;;4.10;1.92;;;26.90;99.90;;;;;;4112614;28;20050;-64
2022/07/13 01:31:45;;;;;;;3.35;1.73;;;27.00;99.90;;;;;;4106115;28;20387;-65
2022/07/13 01:33:55;;;;;;;2.65;1.73;;;27.10;99.90;;;;;;4117755;28;20145;-64
2022/07/13 01:35:59;;;;;;;1.70;1.40;;;27.20;99.90;;;;;;4136403;28;20045;-64
2022/07/13 01:38:06;;;;;;;2.13;1.40;;;27.20;99.90;;;;;;4140008;28;20050;-65
2022/07/13 01:40:24;;;;;;;1.67;1.10;;;27.20;99.90;;;;;;4139618;28;20070;-65
2022/07/13 01:42:39;;;;;;;3.05;1.48;;;27.30;99.90;;;;;;4121849;28;20100;-65
2022/07/13 01:44:51;;;;;;;2.75;1.30;;;27.30;99.90;;;;;;4138378;28;20038;-65
2022/07/13 01:47:08;;;;;;;1.63;1.30;;;27.40;99.90;;;;;;4122034;28;20123;-65
2022/07/13 01:49:15;;;;;;;3.53;1.15;;;27.50;99.90;;;;;;4152030;28;20153;-65
2022/07/13 01:51:21;;;;;;;1.42;0.90;;;27.40;99.90;;;;;;4172249;28;20156;-65
2022/07/13 01:53:29;;;;;;;2.63;0.88;;;27.30;99.90;;;;;;4157080;28;20137;-64
2022/07/13 01:55:34;;;;;;;2.78;0.80;;;27.30;99.90;;;;;;4173756;28;20392;-66
2022/07/13 01:57:43;;;;;;;1.23;0.70;;;27.30;99.90;;;;;;4165469;28;20080;-65
2022/07/13 01:59:48;;;;;;;2.78;0.70;;;27.40;99.90;;;;;;4185600;28;20134;-66
2022/07/13 02:01:58;;;;;;;1.25;0.80;;;27.50;99.90;;;;;;4171250;28;20659;-65
2022/07/13 02:04:06;;;;;;;2.42;0.90;;;27.70;99.90;;;;;;4173917;28;20044;-64
2022/07/13 02:06:14;;;;;;;1.27;0.80;;;27.70;99.90;;;;;;4173127;28;20053;-64
2022/07/13 02:08:21;;;;;;;3.30;1.00;;;27.90;99.90;;;;;;4171737;28;20436;-64
2022/07/13 02:10:36;;;;;;;1.08;0.60;;;28.00;99.90;;;;;;4172946;28;20073;-65
2022/07/13 02:12:47;;;;;;;0.88;0.73;;;28.00;99.90;;;;;;4169587;28;20044;-65
2022/07/13 02:15:04;;;;;;;1.90;0.88;;;28.00;99.90;;;;;;4172979;28;20562;-65
2022/07/13 02:17:16;;;;;;;1.73;0.90;;;28.00;99.90;;;;;;4172965;28;20081;-65
2022/07/13 02:19:24;;;;;;;1.40;0.80;;;28.00;99.90;;;;;;4173025;28;20056;-64
2022/07/13 02:21:29;;;;;;;0.95;0.70;;;28.10;99.90;;;;;;4172884;28;20143;-65
2022/07/13 02:23:38;;;;;;;1.02;0.65;;;28.00;99.90;;;;;;4171099;28;20076;-66
2022/07/13 02:25:47;;;;;;;5.18;1.65;;;28.10;99.90;;;;;;4173039;28;20037;-66
2022/07/13 02:27:53;;;;;;;1.15;0.82;;;28.10;99.90;;;;;;4174104;28;20107;-65
2022/07/13 02:30:00;;;;;;;2.72;0.80;;;28.10;99.90;;;;;;4162658;28;20048;-66
2022/07/13 02:32:07;;;;;;;0.98;0.88;;;28.20;99.90;;;;;;4166858;28;20077;-66
2022/07/13 02:34:12;;;;;;;2.25;0.85;;;28.40;99.90;;;;;;4167359;28;20388;-67
2022/07/13 02:36:17;;;;;;;2.28;0.90;;;28.50;99.90;;;;;;4170822;28;20049;-66
2022/07/13 02:38:26;;;;;;;2.42;0.70;;;28.60;99.90;;;;;;4169077;28;20044;-65
2022/07/13 02:40:39;;;;;;;1.10;0.80;;;28.60;99.90;;;;;;4171385;28;20041;-66
2022/07/13 02:42:50;;;;;;;1.50;0.77;;;28.70;99.90;;;;;;4170981;28;20380;-65
2022/07/13 02:45:07;;;;;;;1.30;0.70;;;28.70;99.90;;;;;;4169491;28;20504;-65
2022/07/13 02:47:14;;;;;;;2.35;0.80;;;28.70;99.90;;;;;;4171192;28;20075;-68
2022/07/13 02:49:26;;;;;;;1.40;0.77;;;28.70;99.90;;;;;;4168877;28;20514;-66
2022/07/13 02:51:36;;;;;;;2.20;1.20;;;28.70;99.90;;;;;;4182129;28;20056;-67
2022/07/13 02:53:41;;;;;;;4.78;1.55;;;28.80;99.90;;;;;;4169643;28;20052;-66
2022/07/13 02:55:46;;;;;;;5.45;1.77;;;28.70;99.90;;;;;;4164815;28;20068;-65
2022/07/13 02:57:53;;;;;;;2.80;0.70;;;28.60;99.90;;;;;;4181270;28;20041;-66
2022/07/13 02:59:59;;;;;;;2.33;0.70;;;28.50;99.90;;;;;;4169922;28;20144;-65
2022/07/13 03:02:06;;;;;;;1.15;0.75;;;28.40;99.90;;;;;;4153636;28;20564;-65
2022/07/13 03:04:14;;;;;;;2.38;0.90;;;28.40;99.90;;;;;;4148721;28;20088;-65
2022/07/13 03:06:19;;;;;;;1.38;0.70;;;28.50;99.90;;;;;;4171014;28;20416;-65
2022/07/13 03:08:23;;;;;;;1.55;0.90;;;28.50;99.90;;;;;;4170385;28;20660;-65
2022/07/13 03:10:31;;;;;;;2.58;0.82;;;28.60;99.90;;;;;;4169693;28;20099;-66
2022/07/13 03:12:36;;;;;;;1.88;0.90;;;28.60;99.90;;;;;;4174455;28;20049;-66
2022/07/13 03:14:41;;;;;;;1.52;0.90;;;28.70;99.90;;;;;;4170827;28;20362;-67
2022/07/13 03:16:49;;;;;;;1.30;0.85;;;28.70;99.90;;;;;;4135141;28;20094;-66
2022/07/13 03:18:55;;;;;;;3.08;0.77;;;28.80;99.90;;;;;;4174700;28;20046;-66
2022/07/13 03:21:09;;;;;;;1.65;0.73;;;28.80;99.90;;;;;;4174449;28;20033;-66
2022/07/13 03:23:24;;;;;;;2.15;0.77;;;28.80;99.90;;;;;;4172715;28;20045;-66
2022/07/13 03:25:30;;;;;;;0.88;0.65;;;28.80;99.90;;;;;;4172155;28;20041;-66
2022/07/13 03:27:35;;;;;;;0.70;0.57;;;28.90;99.90;;;;;;4174281;28;20048;-66
2022/07/13 03:29:44;;;;;;;3.25;0.80;;;28.90;99.90;;;;;;4175861;28;20494;-66
2022/07/13 03:31:49;;;;;;;0.85;0.55;;;29.00;99.90;;;;;;4173507;28;20124;-66
2022/07/13 03:33:55;;;;;;;1.83;0.95;;;29.00;99.90;;;;;;4167082;28;20048;-66
2022/07/13 03:35:59;;;;;;;3.92;0.90;;;29.00;99.90;;;;;;4170779;28;20049;-64
2022/07/13 03:38:05;;;;;;;1.77;0.80;;;29.10;99.90;;;;;;4186439;28;20527;-65
2022/07/13 03:40:11;;;;;;;1.42;0.80;;;29.10;99.90;;;;;;4188946;28;20048;-65
2022/07/13 03:42:19;;;;;;;2.60;0.82;;;29.10;99.90;;;;;;4167180;28;20061;-65
2022/07/13 03:44:25;;;;;;;3.35;1.30;;;29.20;99.90;;;;;;4165934;28;20052;-67
2022/07/13 03:46:32;;;;;;;2.83;1.10;;;29.30;99.90;;;;;;4170297;28;20040;-66
2022/07/13 03:48:41;;;;;;;5.93;1.17;;;29.40;99.90;;;;;;4167328;28;20152;-66
2022/07/13 03:50:46;;;;;;;5.05;1.10;;;29.40;99.90;;;;;;4169886;28;20045;-66
2022/07/13 03:52:55;;;;;;;3.45;1.30;;;29.40;99.90;;;;;;4168055;28;20356;-65
2022/07/13 03:55:07;;;;;;;3.20;1.00;;;29.50;99.90;;;;;;4169226;28;20095;-66
2022/07/13 03:57:24;;;;;;;1.95;0.80;;;29.60;99.90;;;;;;4169312;28;20393;-65
2022/07/13 03:59:45;;;;;;;2.03;0.90;;;29.60;99.90;;;;;;4167568;28;20171;-65
2022/07/13 04:01:58;;;;;;;2.03;0.75;;;29.70;99.90;;;;;;4174124;28;20464;-67
2022/07/13 04:04:06;;;;;;;2.05;0.82;;;29.70;99.90;;;;;;4170235;28;20045;-66
2022/07/13 04:06:16;;;;;;;2.67;0.88;;;29.80;99.90;;;;;;4173422;28;20047;-67
2022/07/13 04:08:33;;;;;;;2.70;0.80;;;29.80;99.90;;;;;;4127419;28;20050;-65
2022/07/13 04:10:41;;;;;;;1.80;0.90;;;29.90;99.90;;;;;;4159872;28;20099;-64
2022/07/13 04:13:00;;;;;;;4.18;0.77;;;30.00;99.90;;;;;;4173371;28;20316;-66
2022/07/13 04:15:26;;;;;;;3.47;0.80;;;30.10;99.90;;;;;;4172111;28;20471;-65
2022/07/13 04:17:35;;;;;;;2.03;0.70;;;30.30;99.90;;;;;;4173286;28;20067;-65
2022/07/13 04:19:53;;;;;;;3.28;0.80;;;30.30;99.90;;;;;;4172721;28;20139;-65
2022/07/13 04:22:04;;;;;;;2.42;0.63;;;30.30;99.90;;;;;;4173527;28;20833;-65
2022/07/13 04:24:16;;;;;;;2.05;0.75;;;30.20;99.90;;;;;;4175984;28;20029;-65
2022/07/13 04:26:38;;;;;;;2.45;0.88;;;30.20;99.90;;;;;;4190081;28;20045;-64
2022/07/13 04:28:54;;;;;;;2.53;0.88;;;30.30;99.90;;;;;;4174048;28;20079;-65
2022/07/13 04:31:07;;;;;;;3.58;1.05;;;30.40;99.90;;;;;;4174944;28;20083;-65
2022/07/13 04:33:15;;;;;;;2.38;0.65;;;30.30;99.90;;;;;;4175420;28;20719;-65
2022/07/13 04:35:21;;;;;;;1.10;0.65;;;30.40;99.90;;;;;;4168192;28;20049;-65
2022/07/13 04:37:28;;;;;;;1.15;0.50;;;30.40;99.90;;;;;;4168622;28;20049;-64
2022/07/13 04:39:34;;;;;;;1.48;0.47;;;30.50;99.90;;;;;;4157318;28;20095;-63
2022/07/13 04:41:40;;;;;;;1.80;0.70;;;30.40;99.90;;;;;;4175781;28;20045;-65
2022/07/13 04:43:45;;;;;;;1.55;0.63;;;30.30;99.90;;;;;;4175933;28;20072;-64
2022/07/13 04:45:53;;;;;;;2.92;1.00;;;30.30;99.90;;;;;;4173552;28;20053;-65
2022/07/13 04:48:02;;;;;;;4.97;1.13;;;30.30;99.90;;;;;;4175807;28;20033;-65
2022/07/13 04:50:08;;;;;;;1.58;0.80;;;30.20;99.90;;;;;;4175242;28;20059;-65
2022/07/13 04:52:13;;;;;;;1.65;0.60;;;30.10;99.90;;;;;;4175305;28;20049;-66
2022/07/13 04:54:22;;;;;;;2.47;0.88;;;30.10;99.90;;;;;;4175472;28;20474;-65
2022/07/13 04:56:27;;;;;;;0.88;0.60;;;30.20;99.90;;;;;;4175447;28;20106;-64
2022/07/13 04:58:32;;;;;;;1.48;0.82;;;30.20;99.90;;;;;;4175896;28;20053;-65
2022/07/13 05:00:41;;;;;;;4.63;0.77;;;30.20;99.90;;;;;;4175140;28;20069;-66
2022/07/13 05:03:06;;;;;;;2.25;0.77;;;30.00;99.90;;;;;;4174059;28;20648;-65
2022/07/13 05:05:10;;;;;;;3.00;0.80;;;29.80;99.90;;;;;;4173888;28;20049;-65
2022/07/13 05:07:19;;;;;;;2.38;1.10;;;29.70;99.90;;;;;;4170161;28;20045;-66
2022/07/13 05:09:24;;;;;;;2.50;0.82;;;29.50;99.90;;;;;;4173529;28;20032;-66
2022/07/13 05:11:30;;;;;;;6.22;1.27;;;29.30;99.90;;;;;;4176299;28;20528;-65
2022/07/13 05:13:38;;;;;;;7.65;2.10;;;29.10;99.90;;;;;;4176785;28;20045;-65
2022/07/13 05:15:44;;;;;;;8.93;2.45;;;28.90;99.90;;;;;;4176898;28;20504;-66
2022/07/13 05:17:50;;;;;;;6.57;2.53;;;28.70;99.90;;;;;;4175728;28;20073;-65
2022/07/13 05:20:00;;;;;;;8.15;4.40;;;28.60;99.90;;;;;;4173247;28;20495;-65
2022/07/13 05:22:07;;;;;;;7.22;3.85;;;28.40;99.90;;;;;;4175846;28;20470;-65
2022/07/13 05:24:15;;;;;;;5.93;3.47;;;28.30;99.90;;;;;;4175902;28;20078;-66
2022/07/13 05:26:23;;;;;;;4.72;2.15;;;28.20;99.90;;;;;;4178706;28;20491;-64
2022/07/13 05:28:28;;;;;;;3.00;1.30;;;28.20;99.90;;;;;;4180108;28;20056;-64
2022/07/13 05:30:33;;;;;;;6.00;1.02;;;28.20;99.90;;;;;;4178328;28;20037;-63
2022/07/13 05:32:53;;;;;;;2.45;0.98;;;28.10;99.90;;;;;;4177947;28;20481;-64
2022/07/13 05:35:14;;;;;;;4.03;0.85;;;28.20;99.90;;;;;;4178989;28;20079;-64
2022/07/13 05:37:20;;;;;;;3.63;0.70;;;28.20;99.90;;;;;;4178895;28;20045;-64
2022/07/13 05:39:26;;;;;;;1.42;0.60;;;28.20;99.90;;;;;;4180128;28;20047;-64
2022/07/13 05:41:32;;;;;;;2.58;0.70;;;28.20;99.90;;;;;;4174899;28;20056;-64
2022/07/13 05:43:38;;;;;;;0.57;0.40;;;28.30;99.90;;;;;;4160897;28;20046;-64
2022/07/13 05:45:46;;;;;;;1.13;0.40;;;28.20;99.90;;;;;;4177948;28;20080;-65
2022/07/13 05:47:50;;;;;;;2.22;0.32;;;28.30;99.90;;;;;;4178260;28;21543;-64
2022/07/13 05:49:56;;;;;;;1.05;0.32;;;28.20;99.90;;;;;;4192842;28;20076;-65
2022/07/13 05:52:07;;;;;;;3.15;0.70;;;28.30;99.90;;;;;;4177916;28;20037;-64
2022/07/13 05:54:12;;;;;;;1.23;0.43;;;28.20;99.90;;;;;;4161826;28;20877;-64
2022/07/13 05:56:39;;;;;;;2.58;0.57;;;28.20;99.90;;;;;;4160799;28;20049;-65
2022/07/13 05:58:46;;;;;;;2.13;0.80;;;28.20;99.90;;;;;;4162907;28;20079;-64
2022/07/13 06:00:50;;;;;;;2.70;0.90;;;28.10;99.90;;;;;;4162460;28;20447;-64
2022/07/13 06:03:00;;;;;;;2.88;0.85;;;28.00;99.90;;;;;;4159792;28;20058;-64
2022/07/13 06:05:05;;;;;;;1.70;0.80;;;28.00;99.90;;;;;;4161717;28;20065;-63
2022/07/13 06:07:10;;;;;;;1.75;0.57;;;27.90;99.90;;;;;;4162123;28;20554;-63
2022/07/13 06:09:15;;;;;;;1.85;0.77;;;27.90;99.90;;;;;;4162270;28;20066;-64
2022/07/13 06:11:21;;;;;;;1.83;0.70;;;28.00;99.90;;;;;;4162986;28;20038;-65
2022/07/13 06:13:26;;;;;;;1.20;0.60;;;28.10;99.90;;;;;;4161121;28;20081;-65
2022/07/13 06:15:30;;;;;;;1.17;0.80;;;28.20;99.90;;;;;;4159448;28;20053;-64
2022/07/13 06:17:37;;;;;;;2.63;0.70;;;28.40;99.90;;;;;;4156877;28;20096;-64
2022/07/13 06:19:41;;;;;;;1.40;0.80;;;28.50;99.90;;;;;;4158960;28;20034;-64
2022/07/13 06:21:46;;;;;;;6.47;1.35;;;28.60;99.90;;;;;;4160200;28;20052;-64
2022/07/13 06:23:54;;;;;;;2.38;1.00;;;28.80;99.90;;;;;;4161745;28;20464;-63
2022/07/13 06:25:59;;;;;;;5.57;1.33;;;28.90;99.90;;;;;;4154128;28;20050;-63
2022/07/13 06:28:05;;;;;;;3.25;1.00;;;29.10;99.90;;;;;;4160617;28;20048;-64
2022/07/13 06:30:13;;;;;;;3.33;0.90;;;29.20;99.90;;;;;;4159643;28;20061;-64
2022/07/13 06:32:20;;;;;;;3.75;1.08;;;29.30;99.90;;;;;;4158745;28;20495;-64
2022/07/13 06:34:24;;;;;;;1.25;0.70;;;29.40;99.90;;;;;;4158918;28;20066;-63
2022/07/13 06:36:38;;;;;;;1.75;0.70;;;29.60;99.90;;;;;;4156366;28;20042;-63
2022/07/13 06:38:44;;;;;;;2.05;0.80;;;29.60;99.90;;;;;;4156060;28;20057;-63
2022/07/13 06:40:53;;;;;;;2.13;0.80;;;29.50;99.90;;;;;;4158423;28;20053;-63
2022/07/13 06:43:00;;;;;;;1.75;0.90;;;29.50;99.90;;;;;;4162928;28;20093;-64
2022/07/13 06:45:06;;;;;;;3.35;1.00;;;29.60;99.90;;;;;;4158465;28;20172;-63
2022/07/13 06:47:10;;;;;;;2.50;0.90;;;29.70;99.90;;;;;;4151271;28;20065;-63
2022/07/13 06:49:17;;;;;;;2.63;0.93;;;29.80;99.90;;;;;;4156482;28;20300;-64
2022/07/13 06:51:25;;;;;;;1.75;0.70;;;29.90;99.90;;;;;;4152942;28;20057;-64
2022/07/13 06:53:30;;;;;;;1.42;0.80;;;29.90;99.90;;;;;;4166492;28;20054;-64
2022/07/13 06:55:39;;;;;;;1.88;1.15;;;30.10;99.90;;;;;;4174128;28;20053;-63
2022/07/13 06:57:44;;;;;;;1.73;0.85;;;30.40;99.90;;;;;;4171524;28;20124;-63
2022/07/13 06:59:49;;;;;;;3.28;1.30;;;30.70;99.90;;;;;;4171472;28;20492;-63
2022/07/13 07:01:55;;;;;;;4.47;1.92;;;30.90;99.90;;;;;;4167905;28;20422;-63
2022/07/13 07:04:00;;;;;;;3.30;1.08;;;30.90;99.90;;;;;;4176176;28;20047;-65
2022/07/13 07:06:06;;;;;;;1.88;0.95;;;30.80;99.90;;;;;;4173803;28;20055;-64
2022/07/13 07:08:16;;;;;;;2.25;0.82;;;30.80;99.90;;;;;;4173405;28;20400;-63
2022/07/13 07:10:21;;;;;;;0.70;0.60;;;30.80;99.90;;;;;;4177521;28;20503;-63
2022/07/13 07:12:35;;;;;;;2.20;0.80;;;30.60;99.90;;;;;;4173527;28;20041;-64
2022/07/13 07:14:40;;;;;;;1.67;0.80;;;30.50;99.90;;;;;;4173278;28;20049;-63
2022/07/13 07:16:45;;;;;;;1.02;0.60;;;30.50;99.90;;;;;;4166834;28;20076;-63
2022/07/13 07:18:50;;;;;;;1.60;0.57;;;30.40;99.90;;;;;;4173130;28;20045;-63
2022/07/13 07:21:15;;;;;;;1.35;0.60;;;30.30;99.90;;;;;;4186577;28;20091;-63
2022/07/13 07:23:20;;;;;;;1.75;0.63;;;30.30;99.90;;;;;;4172440;28;20131;-63
2022/07/13 07:25:25;;;;;;;0.80;0.40;;;30.20;99.90;;;;;;4171960;28;20037;-64
2022/07/13 07:27:32;;;;;;;1.10;0.70;;;30.20;99.90;;;;;;4142536;28;20096;-64
2022/07/13 07:29:38;;;;;;;2.30;1.00;;;30.30;99.90;;;;;;4172988;28;20525;-64
2022/07/13 07:31:42;;;;;;;1.08;0.85;;;30.30;99.90;;;;;;4172816;28;20048;-64
2022/07/13 07:33:50;;;;;;;0.60;0.40;;;30.20;99.90;;;;;;4172147;28;20037;-64
2022/07/13 07:35:54;;;;;;;2.30;0.77;;;30.10;99.90;;;;;;4172289;28;20172;-64
2022/07/13 07:37:59;;;;;;;1.42;0.73;;;30.00;99.90;;;;;;4174666;28;20073;-66
2022/07/13 07:40:05;;;;;;;0.98;0.60;;;30.00;99.90;;;;;;4172469;28;20034;-65
2022/07/13 07:42:21;;;;;;;0.77;0.60;;;29.90;99.90;;;;;;4172553;28;20376;-65
2022/07/13 07:44:45;;;;;;;1.00;0.60;;;29.70;99.90;;;;;;4170832;28;20538;-65
2022/07/13 07:46:52;;;;;;;0.90;0.55;;;29.70;99.90;;;;;;4177394;28;20045;-65
2022/07/13 07:48:57;;;;;;;1.20;0.57;;;29.60;99.90;;;;;;4161830;28;20048;-65
2022/07/13 07:51:02;;;;;;;1.50;0.50;;;29.70;99.90;;;;;;4160529;28;20748;-64
2022/07/13 07:53:09;;;;;;;1.50;0.52;;;29.70;99.90;;;;;;4161643;28;20125;-64
2022/07/13 07:55:14;;;;;;;0.40;0.40;;;29.80;99.90;;;;;;4175575;28;20049;-64
2022/07/13 07:57:19;;;;;;;1.67;0.45;;;29.80;99.90;;;;;;4170844;28;20048;-64
2022/07/13 07:59:26;;;;;;;0.43;0.35;;;29.80;99.90;;;;;;4175412;28;20483;-64
2022/07/13 08:01:31;;;;;;;4.05;0.55;;;29.80;99.90;;;;;;4176016;28;20094;-64
2022/07/13 08:03:35;;;;;;;0.82;0.50;;;29.80;99.90;;;;;;4177423;28;20539;-65
2022/07/13 08:05:44;;;;;;;2.25;0.70;;;29.80;99.90;;;;;;4176544;28;20121;-65
2022/07/13 08:07:49;;;;;;;0.82;0.60;;;29.80;99.90;;;;;;4171470;28;20086;-63
2022/07/13 08:09:53;;;;;;;1.15;0.60;;;29.90;99.90;;;;;;4174250;28;20217;-63
2022/07/13 08:12:02;;;;;;;0.80;0.40;;;29.90;99.90;;;;;;4175269;28;20167;-66
2022/07/13 08:14:08;;;;;;;2.75;0.50;;;29.80;99.90;;;;;;4176296;28;20040;-63
2022/07/13 08:16:14;;;;;;;1.73;0.60;;;29.70;99.90;;;;;;4172356;28;20492;-64
2022/07/13 08:18:19;;;;;;;1.85;0.77;;;29.60;99.90;;;;;;4175119;28;20482;-66
2022/07/13 08:20:43;;;;;;;6.20;0.85;;;29.60;99.90;;;;;;4176769;28;20069;-66
2022/07/13 08:22:48;;;;;;;1.83;0.50;;;29.50;99.90;;;;;;4176318;28;20049;-63
2022/07/13 08:24:56;;;;;;;0.88;0.65;;;29.50;99.90;;;;;;4173874;28;20056;-64
2022/07/13 08:27:01;;;;;;;0.85;0.55;;;29.40;99.90;;;;;;4177937;28;20041;-64
2022/07/13 08:29:06;;;;;;;0.77;0.40;;;29.50;99.90;;;;;;4170440;28;20045;-63
2022/07/13 08:31:12;;;;;;;2.15;0.50;;;29.60;99.90;;;;;;4171685;28;20091;-63
2022/07/13 08:33:17;;;;;;;1.52;0.63;;;29.60;99.90;;;;;;4188317;28;20040;-64
2022/07/13 08:39:59;;;;;;;1.65;0.95;;;29.60;99.90;;;;;;4167534;28;20045;-64
2022/07/13 08:42:06;;;;;;;1.25;0.50;;;29.60;99.90;;;;;;4174701;28;20044;-64
2022/07/13 08:44:11;;;;;;;3.13;0.60;;;29.60;99.90;;;;;;4173823;28;20088;-63
2022/07/13 08:46:25;;;;;;;0.55;0.50;;;29.60;99.90;;;;;;4171126;28;21500;-64
2022/07/13 08:48:38;;;;;;;1.02;0.40;;;29.50;99.90;;;;;;4171651;28;20040;-63
2022/07/13 08:50:45;;;;;;;1.35;0.55;;;29.50;99.90;;;;;;4167921;28;20071;-63
2022/07/13 08:52:49;;;;;;;2.60;0.60;;;29.50;99.90;;;;;;4165167;28;20103;-63
2022/07/13 08:54:55;;;;;;;1.40;0.50;;;29.40;99.90;;;;;;4166132;28;20084;-63
2022/07/13 08:57:01;;;;;;;0.55;0.40;;;29.30;99.90;;;;;;4167746;28;20136;-64
2022/07/13 08:59:07;;;;;;;4.18;0.47;;;29.30;99.90;;;;;;4171150;28;20056;-64
2022/07/13 09:01:12;;;;;;;1.17;0.60;;;29.20;99.90;;;;;;4174367;28;20111;-64
2022/07/13 09:03:18;;;;;;;1.27;0.50;;;29.10;99.90;;;;;;4175169;28;20045;-64
2022/07/13 09:05:23;;;;;;;1.48;0.50;;;29.00;99.90;;;;;;4174811;28;20639;-64
2022/07/13 09:07:28;;;;;;;2.08;0.70;;;28.90;99.90;;;;;;4177721;28;20045;-64
2022/07/13 09:09:39;;;;;;;0.90;0.60;;;28.80;99.90;;;;;;4141051;28;20500;-64
2022/07/13 09:12:18;;;;;;;1.45;1.10;;;28.60;99.90;;;;;;4175139;28;20045;-64
2022/07/13 09:14:26;;;;;;;2.78;0.93;;;28.70;99.90;;;;;;4172647;28;20128;-63
2022/07/13 09:16:33;;;;;;;2.33;0.82;;;28.50;99.90;;;;;;4169444;28;20041;-63
2022/07/13 09:18:38;;;;;;;3.58;1.00;;;28.40;99.90;;;;;;4166677;28;20042;-64
2022/07/13 09:20:49;;;;;;;0.90;0.70;;;28.50;99.90;;;;;;4169466;28;20067;-64
2022/07/13 09:23:14;;;;;;;4.22;0.70;;;28.40;99.90;;;;;;4172376;28;20045;-65
2022/07/13 09:25:33;;;;;;;2.33;0.60;;;28.60;99.90;;;;;;4173548;28;21482;-65
2022/07/13 09:27:47;;;;;;;1.02;0.70;;;28.30;99.90;;;;;;4173897;28;20045;-64
2022/07/13 09:29:55;;;;;;;0.98;0.63;;;28.40;99.90;;;;;;4174863;28;20106;-65
2022/07/13 09:32:00;;;;;;;2.15;1.00;;;28.30;99.90;;;;;;4170171;28;20045;-64
2022/07/13 09:34:05;;;;;;;2.08;0.65;;;28.30;99.90;;;;;;4168346;28;20052;-63
2022/07/13 09:36:16;;;;;;;0.90;0.52;;;28.20;99.90;;;;;;4173088;28;20053;-63
2022/07/13 09:38:30;;;;;;;1.27;0.63;;;28.10;99.90;;;;;;4172894;28;20049;-63
2022/07/13 09:40:34;;;;;;;1.35;0.60;;;28.10;99.90;;;;;;4172853;28;20060;-63
2022/07/13 09:42:42;;;;;;;2.42;0.70;;;28.20;99.90;;;;;;4171967;28;20044;-63
2022/07/13 09:47:14;;;;;;;1.90;0.60;;;28.00;99.90;;;;;;4174199;28;20037;-64
2022/07/13 09:49:19;;;;;;;2.90;0.70;;;28.00;99.90;;;;;;4170845;28;20057;-64
2022/07/13 09:51:36;;;;;;;1.33;0.50;;;28.00;99.90;;;;;;4172206;28;20043;-64
2022/07/13 09:53:44;;;;;;;0.85;0.55;;;28.00;99.90;;;;;;4171839;28;20136;-64
2022/07/13 09:56:03;;;;;;;1.95;0.60;;;28.10;99.90;;;;;;4173693;28;20057;-62
2022/07/13 09:58:11;;;;;;;3.38;0.70;;;28.10;99.90;;;;;;4172055;28;20053;-64
2022/07/13 10:00:22;;;;;;;2.83;0.70;;;28.10;99.90;;;;;;4180760;28;20045;-64
2022/07/13 10:02:39;;;;;;;1.92;0.85;;;28.10;99.90;;;;;;4179436;28;20200;-64
2022/07/13 10:04:46;;;;;;;0.77;0.50;;;28.10;99.90;;;;;;4180456;28;20059;-62
2022/07/13 10:07:00;;;;;;;1.33;0.70;;;27.90;99.90;;;;;;4179535;28;20400;-63
2022/07/13 10:11:53;;;;;;;0.85;0.63;;;27.80;99.90;;;;;;4192987;28;20455;-62
2022/07/13 10:14:02;;;;;;;0.90;0.50;;;27.90;99.90;;;;;;4180548;28;20454;-62
2022/07/13 10:16:19;;;;;;;1.90;0.52;;;27.90;99.90;;;;;;4175446;28;20752;-63
2022/07/13 10:18:32;;;;;;;1.75;0.63;;;27.80;99.90;;;;;;4179966;28;20099;-62
2022/07/13 10:20:41;;;;;;;4.70;0.43;;;27.70;99.90;;;;;;4177470;28;20496;-62
2022/07/13 10:22:51;;;;;;;3.47;0.60;;;27.70;99.90;;;;;;4179828;28;20411;-63
2022/07/13 10:25:06;;;;;;;0.75;0.50;;;27.60;99.90;;;;;;4178867;28;20102;-63
2022/07/13 10:27:28;;;;;;;1.45;0.70;;;27.60;99.90;;;;;;4177144;28;20037;-64
2022/07/13 10:29:46;;;;;;;;;;;27.60;99.90;;;;;;4177806;28;20044;-64
2022/07/13 10:32:00;;;;;;;2.53;0.70;;;27.60;99.90;;;;;;4179607;28;19929;-63
2022/07/13 10:34:07;;;;;;;0.90;0.50;;;27.60;99.90;;;;;;4173614;28;20046;-64
2022/07/13 10:36:13;;;;;;;3.60;0.60;;;27.60;99.90;;;;;;4153566;28;20055;-64
2022/07/13 10:38:28;;;;;;;2.80;0.85;;;27.50;99.90;;;;;;4175106;28;20392;-63
2022/07/13 10:40:40;;;;;;;4.63;0.68;;;27.60;99.90;;;;;;4176273;28;20048;-64
2022/07/13 10:43:10;;;;;;;3.08;0.75;;;27.50;99.90;;;;;;4176180;28;20075;-64
2022/07/13 10:45:38;;;;;;;1.77;1.10;;;27.50;99.90;;;;;;4176852;28;20456;-63
2022/07/13 10:47:45;;;;;;;3.28;1.02;;;27.50;99.90;;;;;;4178810;28;20071;-63
2022/07/13 10:49:52;;;;;;;2.90;1.00;;;27.60;99.90;;;;;;4178830;28;20036;-64
2022/07/13 10:52:17;;;;;;;5.40;0.70;;;27.60;99.90;;;;;;4177553;28;20562;-64
2022/07/13 10:54:35;;;;;;;1.98;0.60;;;27.60;99.90;;;;;;4172289;28;20053;-64
2022/07/13 10:57:13;;;;;;;2.03;0.90;;;27.40;99.90;;;;;;4175325;28;20781;-64
2022/07/13 10:59:50;;;;;;;2.30;1.30;;;27.30;99.90;;;;;;4172817;28;20053;-64
2022/07/13 11:02:00;;;;;;;2.90;0.90;;;27.20;99.90;;;;;;4172920;28;20117;-64
2022/07/13 11:04:15;;;;;;;4.63;1.42;;;27.30;99.90;;;;;;4176943;28;20491;-63
2022/07/13 11:06:24;;;;;;;3.53;1.33;;;27.30;99.90;;;;;;4172003;28;20037;-64
2022/07/13 11:08:41;;;;;;;3.35;1.83;;;27.40;99.90;;;;;;4171197;28;20139;-63
2022/07/13 11:11:14;;;;;;;4.95;1.90;;;27.40;99.90;;;;;;4171511;28;20417;-64
2022/07/13 11:13:39;;;;;;;4.88;2.67;;;27.40;99.90;;;;;;4175955;28;20111;-64
2022/07/13 11:16:08;;;;;;;2.92;1.90;;;27.30;99.90;;;;;;4175970;28;20396;-64
2022/07/13 11:18:27;;;;;;;3.95;1.70;;;27.20;99.90;;;;;;4174462;28;20057;-63
2022/07/13 11:20:36;;;;;;;3.83;1.98;;;27.30;99.90;;;;;;4173768;28;20068;-64
2022/07/13 11:25:46;;;;;;;5.10;2.95;;;27.30;99.90;;;;;;4177999;28;20053;-63